sensor_id;sensor_type;location;lat;lon;timestamp;P1;durP1;ratioP1;P2;durP2;ratioP2
17239;SDS011;9943;54.378;18.604;2022-08-01T00:00:44;4.18;;;3.15;;
17239;SDS011;9943;54.378;18.604;2022-08-01T00:03:15;2.85;;;2.63;;
17239;SDS011;9943;54.378;18.604;2022-08-01T00:05:48;3.35;;;2.88;;
17239;SDS011;9943;54.378;18.604;2022-08-01T00:08:16;5.78;;;3.33;;
17239;SDS011;9943;54.378;18.604;2022-08-01T00:10:49;5.30;;;3.22;;
17239;SDS011;9943;54.378;18.604;2022-08-01T00:13:20;3.22;;;2.80;;
17239;SDS011;9943;54.378;18.604;2022-08-01T00:15:49;3.88;;;3.28;;
17239;SDS011;9943;54.378;18.604;2022-08-01T00:18:22;3.50;;;3.15;;
17239;SDS011;9943;54.378;18.604;2022-08-01T00:20:51;5.57;;;3.20;;
17239;SDS011;9943;54.378;18.604;2022-08-01T00:23:20;4.35;;;3.08;;
17239;SDS011;9943;54.378;18.604;2022-08-01T00:28:43;3.80;;;3.40;;
17239;SDS011;9943;54.378;18.604;2022-08-01T00:31:12;3.92;;;3.25;;
17239;SDS011;9943;54.378;18.604;2022-08-01T00:33:41;4.53;;;3.00;;
17239;SDS011;9943;54.378;18.604;2022-08-01T00:36:16;6.47;;;3.55;;
17239;SDS011;9943;54.378;18.604;2022-08-01T00:38:46;4.35;;;3.33;;
17239;SDS011;9943;54.378;18.604;2022-08-01T00:41:16;3.40;;;3.10;;
17239;SDS011;9943;54.378;18.604;2022-08-01T00:43:46;4.90;;;3.30;;
17239;SDS011;9943;54.378;18.604;2022-08-01T00:46:18;3.58;;;2.70;;
17239;SDS011;9943;54.378;18.604;2022-08-01T00:48:52;4.50;;;3.55;;
17239;SDS011;9943;54.378;18.604;2022-08-01T00:54:32;5.60;;;3.58;;
17239;SDS011;9943;54.378;18.604;2022-08-01T00:57:07;6.30;;;3.50;;
17239;SDS011;9943;54.378;18.604;2022-08-01T00:59:35;3.88;;;3.35;;
17239;SDS011;9943;54.378;18.604;2022-08-01T01:02:08;4.70;;;3.90;;
17239;SDS011;9943;54.378;18.604;2022-08-01T01:04:39;4.75;;;3.78;;
17239;SDS011;9943;54.378;18.604;2022-08-01T01:07:14;6.85;;;3.90;;
17239;SDS011;9943;54.378;18.604;2022-08-01T01:09:57;4.13;;;3.72;;
17239;SDS011;9943;54.378;18.604;2022-08-01T01:12:37;5.05;;;4.25;;
17239;SDS011;9943;54.378;18.604;2022-08-01T01:15:16;4.07;;;3.58;;
17239;SDS011;9943;54.378;18.604;2022-08-01T01:17:53;7.30;;;5.20;;
17239;SDS011;9943;54.378;18.604;2022-08-01T01:20:26;5.53;;;3.67;;
17239;SDS011;9943;54.378;18.604;2022-08-01T01:23:16;4.07;;;3.45;;
17239;SDS011;9943;54.378;18.604;2022-08-01T01:26:01;4.40;;;3.28;;
17239;SDS011;9943;54.378;18.604;2022-08-01T01:29:06;5.38;;;3.35;;
17239;SDS011;9943;54.378;18.604;2022-08-01T01:31:57;3.40;;;3.10;;
17239;SDS011;9943;54.378;18.604;2022-08-01T01:34:40;3.88;;;3.10;;
17239;SDS011;9943;54.378;18.604;2022-08-01T01:37:18;4.60;;;3.80;;
17239;SDS011;9943;54.378;18.604;2022-08-01T01:39:51;8.68;;;3.70;;
17239;SDS011;9943;54.378;18.604;2022-08-01T01:42:34;4.47;;;3.60;;
17239;SDS011;9943;54.378;18.604;2022-08-01T01:45:12;3.88;;;3.53;;
17239;SDS011;9943;54.378;18.604;2022-08-01T01:47:42;5.35;;;3.63;;
17239;SDS011;9943;54.378;18.604;2022-08-01T01:50:14;5.68;;;5.00;;
17239;SDS011;9943;54.378;18.604;2022-08-01T01:52:44;8.07;;;4.32;;
17239;SDS011;9943;54.378;18.604;2022-08-01T01:55:17;4.90;;;4.47;;
17239;SDS011;9943;54.378;18.604;2022-08-01T01:57:51;4.97;;;3.88;;
17239;SDS011;9943;54.378;18.604;2022-08-01T02:00:24;4.35;;;3.95;;
17239;SDS011;9943;54.378;18.604;2022-08-01T02:02:59;4.88;;;3.70;;
17239;SDS011;9943;54.378;18.604;2022-08-01T02:05:29;7.10;;;4.13;;
17239;SDS011;9943;54.378;18.604;2022-08-01T02:08:05;6.88;;;4.38;;
17239;SDS011;9943;54.378;18.604;2022-08-01T02:10:40;8.60;;;6.00;;
17239;SDS011;9943;54.378;18.604;2022-08-01T02:13:36;5.63;;;4.57;;
17239;SDS011;9943;54.378;18.604;2022-08-01T02:16:08;5.13;;;4.43;;
17239;SDS011;9943;54.378;18.604;2022-08-01T02:18:38;4.78;;;4.28;;
17239;SDS011;9943;54.378;18.604;2022-08-01T02:21:09;4.45;;;3.85;;
17239;SDS011;9943;54.378;18.604;2022-08-01T02:23:43;5.03;;;4.53;;
17239;SDS011;9943;54.378;18.604;2022-08-01T02:26:14;5.55;;;4.15;;
17239;SDS011;9943;54.378;18.604;2022-08-01T02:28:48;6.82;;;5.32;;
17239;SDS011;9943;54.378;18.604;2022-08-01T02:31:38;5.00;;;4.50;;
17239;SDS011;9943;54.378;18.604;2022-08-01T02:34:10;4.35;;;3.95;;
17239;SDS011;9943;54.378;18.604;2022-08-01T02:36:44;4.07;;;3.67;;
17239;SDS011;9943;54.378;18.604;2022-08-01T02:39:28;5.20;;;4.20;;
17239;SDS011;9943;54.378;18.604;2022-08-01T02:42:00;5.45;;;4.28;;
17239;SDS011;9943;54.378;18.604;2022-08-01T02:44:36;4.85;;;3.90;;
17239;SDS011;9943;54.378;18.604;2022-08-01T02:47:14;5.85;;;3.72;;
17239;SDS011;9943;54.378;18.604;2022-08-01T02:49:51;5.82;;;4.28;;
17239;SDS011;9943;54.378;18.604;2022-08-01T02:52:21;4.45;;;3.58;;
17239;SDS011;9943;54.378;18.604;2022-08-01T02:54:53;4.30;;;3.88;;
17239;SDS011;9943;54.378;18.604;2022-08-01T02:57:27;5.18;;;3.90;;
17239;SDS011;9943;54.378;18.604;2022-08-01T03:00:03;5.47;;;3.40;;
17239;SDS011;9943;54.378;18.604;2022-08-01T03:02:39;5.22;;;4.18;;
17239;SDS011;9943;54.378;18.604;2022-08-01T03:05:13;4.35;;;3.50;;
17239;SDS011;9943;54.378;18.604;2022-08-01T03:07:50;4.28;;;3.80;;
17239;SDS011;9943;54.378;18.604;2022-08-01T03:10:21;3.70;;;3.33;;
17239;SDS011;9943;54.378;18.604;2022-08-01T03:12:51;4.38;;;3.97;;
17239;SDS011;9943;54.378;18.604;2022-08-01T03:15:27;5.22;;;3.78;;
17239;SDS011;9943;54.378;18.604;2022-08-01T03:18:01;3.92;;;3.40;;
17239;SDS011;9943;54.378;18.604;2022-08-01T03:20:38;5.13;;;3.58;;
17239;SDS011;9943;54.378;18.604;2022-08-01T03:23:11;4.80;;;3.65;;
17239;SDS011;9943;54.378;18.604;2022-08-01T03:25:44;3.97;;;3.00;;
17239;SDS011;9943;54.378;18.604;2022-08-01T03:28:20;3.60;;;3.30;;
17239;SDS011;9943;54.378;18.604;2022-08-01T03:31:13;3.65;;;3.35;;
17239;SDS011;9943;54.378;18.604;2022-08-01T03:33:47;2.88;;;2.67;;
17239;SDS011;9943;54.378;18.604;2022-08-01T03:36:15;3.85;;;3.17;;
17239;SDS011;9943;54.378;18.604;2022-08-01T03:39:25;4.13;;;3.10;;
17239;SDS011;9943;54.378;18.604;2022-08-01T03:42:09;3.17;;;2.88;;
17239;SDS011;9943;54.378;18.604;2022-08-01T03:44:44;3.28;;;2.95;;
17239;SDS011;9943;54.378;18.604;2022-08-01T03:47:24;2.88;;;2.60;;
17239;SDS011;9943;54.378;18.604;2022-08-01T03:50:02;5.93;;;3.05;;
17239;SDS011;9943;54.378;18.604;2022-08-01T03:52:33;4.03;;;2.58;;
17239;SDS011;9943;54.378;18.604;2022-08-01T03:55:07;2.60;;;2.40;;
17239;SDS011;9943;54.378;18.604;2022-08-01T03:57:52;3.17;;;2.13;;
17239;SDS011;9943;54.378;18.604;2022-08-01T04:00:21;2.40;;;2.20;;
17239;SDS011;9943;54.378;18.604;2022-08-01T04:02:51;5.47;;;2.40;;
17239;SDS011;9943;54.378;18.604;2022-08-01T04:05:23;4.00;;;2.22;;
17239;SDS011;9943;54.378;18.604;2022-08-01T04:07:52;2.35;;;2.15;;
17239;SDS011;9943;54.378;18.604;2022-08-01T04:10:22;2.17;;;1.80;;
17239;SDS011;9943;54.378;18.604;2022-08-01T04:12:51;6.28;;;2.42;;
17239;SDS011;9943;54.378;18.604;2022-08-01T04:15:22;3.25;;;2.17;;
17239;SDS011;9943;54.378;18.604;2022-08-01T04:17:51;4.20;;;2.20;;
17239;SDS011;9943;54.378;18.604;2022-08-01T04:20:25;2.30;;;2.10;;
17239;SDS011;9943;54.378;18.604;2022-08-01T04:22:53;2.22;;;2.00;;
17239;SDS011;9943;54.378;18.604;2022-08-01T04:25:23;3.67;;;2.38;;
17239;SDS011;9943;54.378;18.604;2022-08-01T04:27:59;4.13;;;2.10;;
17239;SDS011;9943;54.378;18.604;2022-08-01T04:30:34;4.28;;;2.10;;
17239;SDS011;9943;54.378;18.604;2022-08-01T04:33:04;4.07;;;1.90;;
17239;SDS011;9943;54.378;18.604;2022-08-01T04:35:40;2.97;;;1.98;;
17239;SDS011;9943;54.378;18.604;2022-08-01T04:38:09;2.63;;;1.95;;
17239;SDS011;9943;54.378;18.604;2022-08-01T04:40:40;3.45;;;2.28;;
17239;SDS011;9943;54.378;18.604;2022-08-01T04:43:09;2.92;;;2.13;;
17239;SDS011;9943;54.378;18.604;2022-08-01T04:45:39;2.20;;;2.00;;
17239;SDS011;9943;54.378;18.604;2022-08-01T04:48:09;2.83;;;2.15;;
17239;SDS011;9943;54.378;18.604;2022-08-01T04:50:46;3.80;;;2.17;;
17239;SDS011;9943;54.378;18.604;2022-08-01T04:53:15;4.30;;;2.33;;
17239;SDS011;9943;54.378;18.604;2022-08-01T04:55:47;2.75;;;2.33;;
17239;SDS011;9943;54.378;18.604;2022-08-01T04:58:18;5.13;;;2.30;;
17239;SDS011;9943;54.378;18.604;2022-08-01T05:00:54;2.95;;;1.80;;
17239;SDS011;9943;54.378;18.604;2022-08-01T05:03:25;4.75;;;2.00;;
17239;SDS011;9943;54.378;18.604;2022-08-01T05:06:28;3.03;;;2.03;;
17239;SDS011;9943;54.378;18.604;2022-08-01T05:09:11;4.15;;;1.75;;
17239;SDS011;9943;54.378;18.604;2022-08-01T05:11:44;1.70;;;1.60;;
17239;SDS011;9943;54.378;18.604;2022-08-01T05:14:14;2.53;;;1.70;;
17239;SDS011;9943;54.378;18.604;2022-08-01T05:16:44;2.45;;;1.45;;
17239;SDS011;9943;54.378;18.604;2022-08-01T05:19:15;1.90;;;1.70;;
17239;SDS011;9943;54.378;18.604;2022-08-01T05:21:47;4.03;;;1.70;;
17239;SDS011;9943;54.378;18.604;2022-08-01T05:24:18;1.90;;;1.55;;
17239;SDS011;9943;54.378;18.604;2022-08-01T05:26:47;2.88;;;1.75;;
17239;SDS011;9943;54.378;18.604;2022-08-01T05:29:19;2.13;;;1.77;;
17239;SDS011;9943;54.378;18.604;2022-08-01T05:31:46;2.63;;;1.67;;
17239;SDS011;9943;54.378;18.604;2022-08-01T05:34:21;2.33;;;1.85;;
17239;SDS011;9943;54.378;18.604;2022-08-01T05:37:02;6.57;;;1.90;;
17239;SDS011;9943;54.378;18.604;2022-08-01T05:39:34;2.38;;;1.73;;
17239;SDS011;9943;54.378;18.604;2022-08-01T05:42:05;5.22;;;2.25;;
17239;SDS011;9943;54.378;18.604;2022-08-01T05:44:37;1.88;;;1.58;;
17239;SDS011;9943;54.378;18.604;2022-08-01T05:47:07;4.80;;;1.75;;
17239;SDS011;9943;54.378;18.604;2022-08-01T05:49:37;1.88;;;1.70;;
17239;SDS011;9943;54.378;18.604;2022-08-01T05:54:55;2.05;;;1.77;;
17239;SDS011;9943;54.378;18.604;2022-08-01T05:57:24;4.45;;;1.98;;
17239;SDS011;9943;54.378;18.604;2022-08-01T05:59:53;3.78;;;1.73;;
17239;SDS011;9943;54.378;18.604;2022-08-01T06:02:24;4.07;;;2.22;;
17239;SDS011;9943;54.378;18.604;2022-08-01T06:04:54;4.25;;;1.98;;
17239;SDS011;9943;54.378;18.604;2022-08-01T06:07:23;4.60;;;2.17;;
17239;SDS011;9943;54.378;18.604;2022-08-01T06:09:51;3.90;;;1.70;;
17239;SDS011;9943;54.378;18.604;2022-08-01T06:12:27;1.50;;;1.40;;
17239;SDS011;9943;54.378;18.604;2022-08-01T06:15:05;1.70;;;1.60;;
17239;SDS011;9943;54.378;18.604;2022-08-01T06:17:34;3.28;;;1.58;;
17239;SDS011;9943;54.378;18.604;2022-08-01T06:20:05;1.65;;;1.52;;
17239;SDS011;9943;54.378;18.604;2022-08-01T06:22:41;3.60;;;1.73;;
17239;SDS011;9943;54.378;18.604;2022-08-01T06:25:09;4.95;;;2.10;;
17239;SDS011;9943;54.378;18.604;2022-08-01T06:27:43;1.90;;;1.40;;
17239;SDS011;9943;54.378;18.604;2022-08-01T06:30:17;2.65;;;1.27;;
17239;SDS011;9943;54.378;18.604;2022-08-01T06:32:49;5.00;;;1.52;;
17239;SDS011;9943;54.378;18.604;2022-08-01T06:35:25;1.52;;;1.30;;
17239;SDS011;9943;54.378;18.604;2022-08-01T06:37:55;2.80;;;1.35;;
17239;SDS011;9943;54.378;18.604;2022-08-01T06:40:28;4.00;;;1.20;;
17239;SDS011;9943;54.378;18.604;2022-08-01T06:42:59;1.08;;;1.08;;
17239;SDS011;9943;54.378;18.604;2022-08-01T06:45:28;1.45;;;1.13;;
17239;SDS011;9943;54.378;18.604;2022-08-01T06:48:01;3.30;;;1.80;;
17239;SDS011;9943;54.378;18.604;2022-08-01T06:50:33;1.52;;;1.20;;
17239;SDS011;9943;54.378;18.604;2022-08-01T06:53:04;1.50;;;1.23;;
17239;SDS011;9943;54.378;18.604;2022-08-01T06:55:36;2.78;;;1.42;;
17239;SDS011;9943;54.378;18.604;2022-08-01T06:58:07;1.77;;;1.23;;
17239;SDS011;9943;54.378;18.604;2022-08-01T07:00:36;1.83;;;1.30;;
17239;SDS011;9943;54.378;18.604;2022-08-01T07:03:07;3.53;;;1.17;;
17239;SDS011;9943;54.378;18.604;2022-08-01T07:05:42;2.17;;;1.30;;
17239;SDS011;9943;54.378;18.604;2022-08-01T07:08:14;3.75;;;1.48;;
17239;SDS011;9943;54.378;18.604;2022-08-01T07:10:46;3.15;;;1.27;;
17239;SDS011;9943;54.378;18.604;2022-08-01T07:13:30;1.45;;;1.30;;
17239;SDS011;9943;54.378;18.604;2022-08-01T07:16:02;4.47;;;1.50;;
17239;SDS011;9943;54.378;18.604;2022-08-01T07:18:33;3.42;;;1.30;;
17239;SDS011;9943;54.378;18.604;2022-08-01T07:21:03;2.38;;;1.15;;
17239;SDS011;9943;54.378;18.604;2022-08-01T07:23:49;2.78;;;1.40;;
17239;SDS011;9943;54.378;18.604;2022-08-01T07:26:17;1.70;;;1.30;;
17239;SDS011;9943;54.378;18.604;2022-08-01T07:28:55;4.00;;;1.48;;
17239;SDS011;9943;54.378;18.604;2022-08-01T07:31:27;1.80;;;1.42;;
17239;SDS011;9943;54.378;18.604;2022-08-01T07:33:55;3.03;;;1.25;;
17239;SDS011;9943;54.378;18.604;2022-08-01T07:36:39;3.33;;;1.20;;
17239;SDS011;9943;54.378;18.604;2022-08-01T07:39:08;1.67;;;1.30;;
17239;SDS011;9943;54.378;18.604;2022-08-01T07:41:39;3.83;;;1.90;;
17239;SDS011;9943;54.378;18.604;2022-08-01T07:44:17;1.50;;;1.40;;
17239;SDS011;9943;54.378;18.604;2022-08-01T07:46:46;1.98;;;1.20;;
17239;SDS011;9943;54.378;18.604;2022-08-01T07:49:17;1.88;;;1.40;;
17239;SDS011;9943;54.378;18.604;2022-08-01T07:54:36;4.20;;;1.88;;
17239;SDS011;9943;54.378;18.604;2022-08-01T07:57:04;4.78;;;1.60;;
17239;SDS011;9943;54.378;18.604;2022-08-01T07:59:34;5.60;;;1.80;;
17239;SDS011;9943;54.378;18.604;2022-08-01T08:02:03;7.43;;;2.67;;
17239;SDS011;9943;54.378;18.604;2022-08-01T08:04:32;5.82;;;2.35;;
17239;SDS011;9943;54.378;18.604;2022-08-01T08:07:04;2.35;;;1.52;;
17239;SDS011;9943;54.378;18.604;2022-08-01T08:09:40;2.35;;;1.63;;
17239;SDS011;9943;54.378;18.604;2022-08-01T08:12:09;2.67;;;1.63;;
17239;SDS011;9943;54.378;18.604;2022-08-01T08:14:41;3.40;;;2.00;;
17239;SDS011;9943;54.378;18.604;2022-08-01T08:17:11;2.78;;;1.77;;
17239;SDS011;9943;54.378;18.604;2022-08-01T08:19:40;2.92;;;1.75;;
17239;SDS011;9943;54.378;18.604;2022-08-01T08:22:10;2.70;;;1.60;;
17239;SDS011;9943;54.378;18.604;2022-08-01T08:24:38;2.67;;;1.55;;
17239;SDS011;9943;54.378;18.604;2022-08-01T08:27:06;1.75;;;1.30;;
17239;SDS011;9943;54.378;18.604;2022-08-01T08:29:36;5.90;;;1.90;;
17239;SDS011;9943;54.378;18.604;2022-08-01T08:32:07;4.47;;;1.35;;
17239;SDS011;9943;54.378;18.604;2022-08-01T08:34:38;3.42;;;1.40;;
17239;SDS011;9943;54.378;18.604;2022-08-01T08:37:09;2.80;;;1.50;;
17239;SDS011;9943;54.378;18.604;2022-08-01T08:39:45;3.88;;;2.65;;
17239;SDS011;9943;54.378;18.604;2022-08-01T08:42:17;2.30;;;1.40;;
17239;SDS011;9943;54.378;18.604;2022-08-01T08:44:46;1.60;;;1.27;;
17239;SDS011;9943;54.378;18.604;2022-08-01T08:50:09;2.75;;;1.70;;
17239;SDS011;9943;54.378;18.604;2022-08-01T08:52:38;3.70;;;3.25;;
17239;SDS011;9943;54.378;18.604;2022-08-01T08:55:10;2.35;;;1.90;;
17239;SDS011;9943;54.378;18.604;2022-08-01T08:57:40;2.90;;;1.80;;
17239;SDS011;9943;54.378;18.604;2022-08-01T09:00:11;5.03;;;1.60;;
17239;SDS011;9943;54.378;18.604;2022-08-01T09:02:42;2.33;;;1.30;;
17239;SDS011;9943;54.378;18.604;2022-08-01T09:05:17;3.88;;;1.52;;
17239;SDS011;9943;54.378;18.604;2022-08-01T09:07:52;1.77;;;1.55;;
17239;SDS011;9943;54.378;18.604;2022-08-01T09:10:22;3.17;;;2.05;;
17239;SDS011;9943;54.378;18.604;2022-08-01T09:13:03;1.38;;;1.27;;
17239;SDS011;9943;54.378;18.604;2022-08-01T09:15:41;3.45;;;2.30;;
17239;SDS011;9943;54.378;18.604;2022-08-01T09:18:25;3.60;;;1.90;;
17239;SDS011;9943;54.378;18.604;2022-08-01T09:23:48;4.53;;;1.77;;
17239;SDS011;9943;54.378;18.604;2022-08-01T09:26:18;3.10;;;1.60;;
17239;SDS011;9943;54.378;18.604;2022-08-01T09:28:47;3.53;;;1.90;;
17239;SDS011;9943;54.378;18.604;2022-08-01T09:31:19;2.17;;;1.40;;
17239;SDS011;9943;54.378;18.604;2022-08-01T09:33:49;1.38;;;1.20;;
17239;SDS011;9943;54.378;18.604;2022-08-01T09:36:18;5.05;;;1.77;;
17239;SDS011;9943;54.378;18.604;2022-08-01T09:38:51;1.80;;;1.35;;
17239;SDS011;9943;54.378;18.604;2022-08-01T09:41:29;2.03;;;1.45;;
17239;SDS011;9943;54.378;18.604;2022-08-01T09:43:58;1.70;;;1.60;;
17239;SDS011;9943;54.378;18.604;2022-08-01T09:46:26;2.83;;;1.60;;
17239;SDS011;9943;54.378;18.604;2022-08-01T09:48:58;2.78;;;1.60;;
17239;SDS011;9943;54.378;18.604;2022-08-01T09:51:38;1.15;;;1.10;;
17239;SDS011;9943;54.378;18.604;2022-08-01T09:54:12;2.58;;;1.50;;
17239;SDS011;9943;54.378;18.604;2022-08-01T09:56:57;2.25;;;1.50;;
17239;SDS011;9943;54.378;18.604;2022-08-01T09:59:37;2.95;;;1.40;;
17239;SDS011;9943;54.378;18.604;2022-08-01T10:05:35;5.20;;;3.22;;
17239;SDS011;9943;54.378;18.604;2022-08-01T10:08:09;4.85;;;1.92;;
17239;SDS011;9943;54.378;18.604;2022-08-01T10:10:43;3.17;;;1.50;;
17239;SDS011;9943;54.378;18.604;2022-08-01T10:13:14;2.95;;;1.95;;
17239;SDS011;9943;54.378;18.604;2022-08-01T10:15:45;2.63;;;1.50;;
17239;SDS011;9943;54.378;18.604;2022-08-01T10:18:18;1.98;;;1.45;;
17239;SDS011;9943;54.378;18.604;2022-08-01T10:20:49;2.47;;;1.80;;
17239;SDS011;9943;54.378;18.604;2022-08-01T10:23:17;3.25;;;1.88;;
17239;SDS011;9943;54.378;18.604;2022-08-01T10:25:50;2.33;;;1.60;;
17239;SDS011;9943;54.378;18.604;2022-08-01T10:28:22;2.88;;;1.25;;
17239;SDS011;9943;54.378;18.604;2022-08-01T10:30:51;3.33;;;1.48;;
17239;SDS011;9943;54.378;18.604;2022-08-01T10:33:21;4.63;;;1.58;;
17239;SDS011;9943;54.378;18.604;2022-08-01T10:35:50;2.40;;;1.80;;
17239;SDS011;9943;54.378;18.604;2022-08-01T10:38:27;3.15;;;1.52;;
17239;SDS011;9943;54.378;18.604;2022-08-01T10:40:57;5.13;;;1.90;;
17239;SDS011;9943;54.378;18.604;2022-08-01T10:43:29;2.05;;;1.35;;
17239;SDS011;9943;54.378;18.604;2022-08-01T10:46:01;2.25;;;1.40;;
17239;SDS011;9943;54.378;18.604;2022-08-01T10:48:33;4.50;;;1.70;;
17239;SDS011;9943;54.378;18.604;2022-08-01T10:51:09;1.60;;;1.50;;
17239;SDS011;9943;54.378;18.604;2022-08-01T10:53:37;2.90;;;1.58;;
17239;SDS011;9943;54.378;18.604;2022-08-01T10:56:17;1.90;;;1.33;;
17239;SDS011;9943;54.378;18.604;2022-08-01T10:58:51;2.17;;;1.50;;
17239;SDS011;9943;54.378;18.604;2022-08-01T11:01:31;2.83;;;1.90;;
17239;SDS011;9943;54.378;18.604;2022-08-01T11:04:05;4.07;;;2.10;;
17239;SDS011;9943;54.378;18.604;2022-08-01T11:09:24;2.95;;;1.70;;
17239;SDS011;9943;54.378;18.604;2022-08-01T11:12:00;2.15;;;1.55;;
17239;SDS011;9943;54.378;18.604;2022-08-01T11:14:32;4.25;;;1.95;;
17239;SDS011;9943;54.378;18.604;2022-08-01T11:20:06;2.00;;;1.20;;
17239;SDS011;9943;54.378;18.604;2022-08-01T11:25:21;3.55;;;1.63;;
17239;SDS011;9943;54.378;18.604;2022-08-01T11:30:35;1.75;;;1.10;;
17239;SDS011;9943;54.378;18.604;2022-08-01T11:33:04;2.25;;;1.17;;
17239;SDS011;9943;54.378;18.604;2022-08-01T11:35:33;3.33;;;1.50;;
17239;SDS011;9943;54.378;18.604;2022-08-01T11:40:45;4.38;;;1.58;;
17239;SDS011;9943;54.378;18.604;2022-08-01T11:43:18;1.60;;;1.50;;
17239;SDS011;9943;54.378;18.604;2022-08-01T11:45:51;3.50;;;1.45;;
17239;SDS011;9943;54.378;18.604;2022-08-01T11:48:24;2.00;;;1.40;;
17239;SDS011;9943;54.378;18.604;2022-08-01T11:50:55;5.68;;;1.55;;
17239;SDS011;9943;54.378;18.604;2022-08-01T11:53:45;2.15;;;1.38;;
17239;SDS011;9943;54.378;18.604;2022-08-01T11:56:28;2.20;;;1.45;;
17239;SDS011;9943;54.378;18.604;2022-08-01T11:59:03;2.30;;;1.67;;
17239;SDS011;9943;54.378;18.604;2022-08-01T12:01:43;4.95;;;2.03;;
17239;SDS011;9943;54.378;18.604;2022-08-01T12:04:12;1.75;;;1.33;;
17239;SDS011;9943;54.378;18.604;2022-08-01T12:06:42;3.00;;;1.27;;
17239;SDS011;9943;54.378;18.604;2022-08-01T12:09:21;2.38;;;1.60;;
17239;SDS011;9943;54.378;18.604;2022-08-01T12:11:56;1.30;;;1.20;;
17239;SDS011;9943;54.378;18.604;2022-08-01T12:14:26;4.03;;;1.98;;
17239;SDS011;9943;54.378;18.604;2022-08-01T12:16:57;4.15;;;2.00;;
17239;SDS011;9943;54.378;18.604;2022-08-01T12:19:28;2.78;;;1.40;;
17239;SDS011;9943;54.378;18.604;2022-08-01T12:22:09;3.85;;;2.08;;
17239;SDS011;9943;54.378;18.604;2022-08-01T12:24:45;2.97;;;1.38;;
17239;SDS011;9943;54.378;18.604;2022-08-01T12:27:23;3.28;;;1.63;;
17239;SDS011;9943;54.378;18.604;2022-08-01T12:29:54;4.68;;;1.40;;
17239;SDS011;9943;54.378;18.604;2022-08-01T12:32:31;2.47;;;1.85;;
17239;SDS011;9943;54.378;18.604;2022-08-01T12:35:02;5.18;;;3.97;;
17239;SDS011;9943;54.378;18.604;2022-08-01T12:37:40;4.95;;;1.45;;
17239;SDS011;9943;54.378;18.604;2022-08-01T12:40:11;2.47;;;1.75;;
17239;SDS011;9943;54.378;18.604;2022-08-01T12:42:45;4.22;;;1.50;;
17239;SDS011;9943;54.378;18.604;2022-08-01T12:45:23;3.83;;;1.70;;
17239;SDS011;9943;54.378;18.604;2022-08-01T12:47:55;1.67;;;1.45;;
17239;SDS011;9943;54.378;18.604;2022-08-01T12:50:27;3.17;;;1.40;;
17239;SDS011;9943;54.378;18.604;2022-08-01T12:53:00;3.38;;;1.42;;
17239;SDS011;9943;54.378;18.604;2022-08-01T12:55:29;2.53;;;1.48;;
17239;SDS011;9943;54.378;18.604;2022-08-01T12:58:03;5.07;;;1.30;;
17239;SDS011;9943;54.378;18.604;2022-08-01T13:00:38;2.95;;;1.40;;
17239;SDS011;9943;54.378;18.604;2022-08-01T13:03:21;4.20;;;1.77;;
17239;SDS011;9943;54.378;18.604;2022-08-01T13:05:50;3.28;;;1.45;;
17239;SDS011;9943;54.378;18.604;2022-08-01T13:08:22;4.10;;;1.50;;
17239;SDS011;9943;54.378;18.604;2022-08-01T13:11:00;3.40;;;1.30;;
17239;SDS011;9943;54.378;18.604;2022-08-01T13:13:37;1.67;;;1.40;;
17239;SDS011;9943;54.378;18.604;2022-08-01T13:16:05;3.25;;;1.65;;
17239;SDS011;9943;54.378;18.604;2022-08-01T13:18:40;1.48;;;1.23;;
17239;SDS011;9943;54.378;18.604;2022-08-01T13:21:13;1.40;;;1.30;;
17239;SDS011;9943;54.378;18.604;2022-08-01T13:23:42;7.22;;;1.58;;
17239;SDS011;9943;54.378;18.604;2022-08-01T13:26:43;10.57;;;2.92;;
17239;SDS011;9943;54.378;18.604;2022-08-01T13:29:13;4.30;;;1.48;;
17239;SDS011;9943;54.378;18.604;2022-08-01T13:31:42;1.55;;;1.30;;
17239;SDS011;9943;54.378;18.604;2022-08-01T13:34:18;1.77;;;1.35;;
17239;SDS011;9943;54.378;18.604;2022-08-01T13:37:01;2.10;;;1.50;;
17239;SDS011;9943;54.378;18.604;2022-08-01T13:39:34;1.80;;;1.30;;
17239;SDS011;9943;54.378;18.604;2022-08-01T13:42:19;1.63;;;1.30;;
17239;SDS011;9943;54.378;18.604;2022-08-01T13:44:54;1.52;;;1.40;;
17239;SDS011;9943;54.378;18.604;2022-08-01T13:47:23;1.85;;;1.60;;
17239;SDS011;9943;54.378;18.604;2022-08-01T13:49:57;1.90;;;1.80;;
17239;SDS011;9943;54.378;18.604;2022-08-01T13:52:33;6.25;;;2.72;;
17239;SDS011;9943;54.378;18.604;2022-08-01T13:55:09;4.75;;;1.38;;
17239;SDS011;9943;54.378;18.604;2022-08-01T13:57:43;5.65;;;1.55;;
17239;SDS011;9943;54.378;18.604;2022-08-01T14:00:18;1.80;;;1.60;;
17239;SDS011;9943;54.378;18.604;2022-08-01T14:02:48;2.10;;;1.90;;
17239;SDS011;9943;54.378;18.604;2022-08-01T14:05:21;2.35;;;1.50;;
17239;SDS011;9943;54.378;18.604;2022-08-01T14:07:49;2.50;;;1.65;;
17239;SDS011;9943;54.378;18.604;2022-08-01T14:10:22;2.83;;;1.70;;
17239;SDS011;9943;54.378;18.604;2022-08-01T14:12:52;1.50;;;1.38;;
17239;SDS011;9943;54.378;18.604;2022-08-01T14:15:21;1.48;;;1.38;;
17239;SDS011;9943;54.378;18.604;2022-08-01T14:17:56;3.17;;;1.42;;
17239;SDS011;9943;54.378;18.604;2022-08-01T14:20:30;2.88;;;1.60;;
17239;SDS011;9943;54.378;18.604;2022-08-01T14:25:59;1.65;;;1.33;;
17239;SDS011;9943;54.378;18.604;2022-08-01T14:28:31;2.20;;;1.50;;
17239;SDS011;9943;54.378;18.604;2022-08-01T14:31:01;5.07;;;1.48;;
17239;SDS011;9943;54.378;18.604;2022-08-01T14:33:39;2.88;;;1.60;;
17239;SDS011;9943;54.378;18.604;2022-08-01T14:36:16;1.75;;;1.48;;
17239;SDS011;9943;54.378;18.604;2022-08-01T14:38:44;1.67;;;1.40;;
17239;SDS011;9943;54.378;18.604;2022-08-01T14:41:14;2.50;;;1.38;;
17239;SDS011;9943;54.378;18.604;2022-08-01T14:43:44;2.35;;;1.48;;
17239;SDS011;9943;54.378;18.604;2022-08-01T14:46:13;2.22;;;1.55;;
17239;SDS011;9943;54.378;18.604;2022-08-01T14:48:46;1.88;;;1.20;;
17239;SDS011;9943;54.378;18.604;2022-08-01T14:51:27;4.40;;;1.55;;
17239;SDS011;9943;54.378;18.604;2022-08-01T14:54:25;6.10;;;1.70;;
17239;SDS011;9943;54.378;18.604;2022-08-01T14:57:13;2.15;;;1.17;;
17239;SDS011;9943;54.378;18.604;2022-08-01T14:59:55;2.65;;;1.50;;
17239;SDS011;9943;54.378;18.604;2022-08-01T15:02:29;4.25;;;1.60;;
17239;SDS011;9943;54.378;18.604;2022-08-01T15:05:13;3.33;;;1.80;;
17239;SDS011;9943;54.378;18.604;2022-08-01T15:07:55;3.42;;;1.20;;
17239;SDS011;9943;54.378;18.604;2022-08-01T15:10:32;1.70;;;1.50;;
17239;SDS011;9943;54.378;18.604;2022-08-01T15:13:06;2.28;;;1.20;;
17239;SDS011;9943;54.378;18.604;2022-08-01T15:15:36;2.13;;;1.58;;
17239;SDS011;9943;54.378;18.604;2022-08-01T15:18:14;2.40;;;1.30;;
17239;SDS011;9943;54.378;18.604;2022-08-01T15:20:47;1.90;;;1.75;;
17239;SDS011;9943;54.378;18.604;2022-08-01T15:23:20;2.40;;;2.20;;
17239;SDS011;9943;54.378;18.604;2022-08-01T15:25:49;2.72;;;1.77;;
17239;SDS011;9943;54.378;18.604;2022-08-01T15:28:23;4.20;;;1.50;;
17239;SDS011;9943;54.378;18.604;2022-08-01T15:31:00;1.33;;;1.23;;
17239;SDS011;9943;54.378;18.604;2022-08-01T15:33:34;2.42;;;1.83;;
17239;SDS011;9943;54.378;18.604;2022-08-01T15:36:13;2.28;;;1.38;;
17239;SDS011;9943;54.378;18.604;2022-08-01T15:39:00;1.63;;;1.42;;
17239;SDS011;9943;54.378;18.604;2022-08-01T15:41:30;3.05;;;1.80;;
17239;SDS011;9943;54.378;18.604;2022-08-01T15:43:59;3.17;;;1.30;;
17239;SDS011;9943;54.378;18.604;2022-08-01T15:46:28;1.85;;;1.42;;
17239;SDS011;9943;54.378;18.604;2022-08-01T15:49:06;4.38;;;1.63;;
17239;SDS011;9943;54.378;18.604;2022-08-01T15:54:48;6.05;;;1.42;;
17239;SDS011;9943;54.378;18.604;2022-08-01T15:57:24;2.10;;;1.50;;
17239;SDS011;9943;54.378;18.604;2022-08-01T15:59:53;1.65;;;1.48;;
17239;SDS011;9943;54.378;18.604;2022-08-01T16:02:22;2.67;;;1.38;;
17239;SDS011;9943;54.378;18.604;2022-08-01T16:04:52;3.92;;;1.35;;
17239;SDS011;9943;54.378;18.604;2022-08-01T16:07:20;5.13;;;2.38;;